createdAt,value
2022-08-31T00:01:00.085Z,100912.19
2022-08-31T00:03:46.344Z,100910.34
2022-08-31T00:06:17.046Z,100913.69
2022-08-31T00:08:47.105Z,100911.66
2022-08-31T00:11:16.989Z,100914.16
2022-08-31T00:13:46.586Z,100911.50
2022-08-31T00:16:15.303Z,100914.47
2022-08-31T00:18:44.127Z,100916.38
2022-08-31T00:21:12.806Z,100917.66
2022-08-31T00:23:41.419Z,100914.03
2022-08-31T00:26:11.584Z,100924.19
2022-08-31T00:28:40.269Z,100928.75
2022-08-31T00:31:09.215Z,100920.28
2022-08-31T00:33:38.335Z,100919.59
2022-08-31T00:36:11.620Z,100918.44
2022-08-31T00:38:42.319Z,100931.19
2022-08-31T00:41:13.182Z,100923.31
2022-08-31T00:43:48.167Z,100928.06
2022-08-31T00:46:20.951Z,100929.19
2022-08-31T00:49:00.345Z,100921.00
2022-08-31T00:51:31.688Z,100938.47
2022-08-31T00:54:02.240Z,100934.50
2022-08-31T00:56:32.530Z,100931.69
2022-08-31T00:59:01.415Z,100925.34
2022-08-31T01:01:30.981Z,100928.41
2022-08-31T01:04:00.516Z,100929.06
2022-08-31T01:06:29.763Z,100934.38
2022-08-31T01:09:02.845Z,100927.53
2022-08-31T01:11:35.530Z,100933.50
2022-08-31T01:14:05.151Z,100930.31
2022-08-31T01:16:40.137Z,100930.59
2022-08-31T01:19:23.462Z,100925.31
2022-08-31T01:22:03.288Z,100923.31
2022-08-31T01:24:36.454Z,100929.69
2022-08-31T01:27:07.873Z,100933.34
2022-08-31T01:29:37.423Z,100935.47
2022-08-31T01:32:07.652Z,100933.84
2022-08-31T01:34:37.005Z,100930.28
2022-08-31T01:37:06.505Z,100926.28
2022-08-31T01:39:36.513Z,100918.78
2022-08-31T01:42:06.414Z,100928.22
2022-08-31T01:44:35.315Z,100924.81
2022-08-31T01:47:04.149Z,100929.88
2022-08-31T01:49:32.827Z,100934.44
2022-08-31T01:52:01.647Z,100937.78
2022-08-31T01:54:30.377Z,100930.25
2022-08-31T01:57:01.354Z,100920.94
2022-08-31T01:59:46.065Z,100927.97
2022-08-31T02:02:33.295Z,100929.78
2022-08-31T02:05:02.299Z,100925.66
2022-08-31T02:07:30.943Z,100923.88
2022-08-31T02:09:59.906Z,100920.00
2022-08-31T02:12:30.441Z,100927.69
2022-08-31T02:15:00.462Z,100929.97
2022-08-31T02:17:29.276Z,100922.56
2022-08-31T02:19:58.312Z,100923.19
2022-08-31T02:22:26.957Z,100918.94
2022-08-31T02:24:56.237Z,100931.31
2022-08-31T02:27:28.012Z,100924.81
2022-08-31T02:29:58.955Z,100925.22
2022-08-31T02:32:28.133Z,100920.63
2022-08-31T02:34:59.434Z,100920.56
2022-08-31T02:37:28.148Z,100920.00
2022-08-31T02:39:58.352Z,100921.59
2022-08-31T02:42:31.165Z,100911.09
2022-08-31T02:45:15.603Z,100920.47
2022-08-31T02:47:45.672Z,100911.13
2022-08-31T02:50:21.773Z,100918.66
2022-08-31T02:52:50.704Z,100921.38
2022-08-31T02:55:19.562Z,100924.00
2022-08-31T02:57:52.424Z,100917.34
2022-08-31T03:00:25.286Z,100921.06
2022-08-31T03:02:54.953Z,100916.31
2022-08-31T03:05:25.519Z,100922.50
2022-08-31T03:07:55.452Z,100920.16
2022-08-31T03:10:26.576Z,100934.09
2022-08-31T03:12:56.108Z,100922.19
2022-08-31T03:15:28.612Z,100925.19
2022-08-31T03:17:58.206Z,100930.94
2022-08-31T03:20:29.684Z,100929.13
2022-08-31T03:23:03.579Z,100938.25
2022-08-31T03:25:33.511Z,100928.75
2022-08-31T03:28:02.362Z,100934.66
2022-08-31T03:30:36.058Z,100939.38
2022-08-31T03:33:09.942Z,100939.25
2022-08-31T03:35:43.785Z,100939.59
2022-08-31T03:38:13.346Z,100945.16
2022-08-31T03:40:44.874Z,100952.47
2022-08-31T03:43:14.709Z,100944.09
2022-08-31T03:45:47.386Z,100953.34
2022-08-31T03:48:16.956Z,100935.88
2022-08-31T03:50:47.306Z,100946.81
2022-08-31T03:53:23.764Z,100952.63
2022-08-31T03:56:01.138Z,100947.03
2022-08-31T03:58:32.655Z,100951.41
2022-08-31T04:01:04.457Z,100947.31
2022-08-31T04:03:53.138Z,100948.25
2022-08-31T04:06:41.664Z,100934.03
2022-08-31T04:09:50.998Z,100940.38
2022-08-31T04:12:39.065Z,100943.00
2022-08-31T04:15:29.314Z,100948.41
2022-08-31T04:18:20.666Z,100957.38
2022-08-31T04:20:50.754Z,100960.16
2022-08-31T04:23:20.040Z,100959.91
2022-08-31T04:25:52.426Z,100962.84
2022-08-31T04:28:21.258Z,100974.75
2022-08-31T04:30:49.898Z,100971.16
2022-08-31T04:33:20.058Z,100970.09
2022-08-31T04:35:49.226Z,100977.06
2022-08-31T04:38:17.906Z,100973.06
2022-08-31T04:40:47.552Z,100981.13
2022-08-31T04:43:16.455Z,100982.78
2022-08-31T04:45:46.370Z,100976.59
2022-08-31T04:48:16.073Z,100979.47
2022-08-31T04:50:50.735Z,100988.38
2022-08-31T04:53:19.544Z,100981.28
2022-08-31T04:55:48.501Z,100981.06
2022-08-31T04:58:20.543Z,100990.28
2022-08-31T05:00:49.153Z,100987.88
2022-08-31T05:03:36.701Z,100981.34
2022-08-31T05:06:08.403Z,100993.81
2022-08-31T05:08:37.035Z,100985.88
2022-08-31T05:11:11.374Z,100986.50
2022-08-31T05:13:40.399Z,100982.19
2022-08-31T05:16:12.500Z,100979.56
2022-08-31T05:18:43.995Z,100985.53
2022-08-31T05:21:17.275Z,100984.63
2022-08-31T05:23:48.920Z,100990.44
2022-08-31T05:26:26.031Z,100988.94
2022-08-31T05:28:56.192Z,100995.56
2022-08-31T05:31:26.815Z,101004.34
2022-08-31T05:33:56.924Z,101003.91
2022-08-31T05:36:39.812Z,101001.28
2022-08-31T05:39:11.762Z,101006.91
2022-08-31T05:41:43.320Z,101022.31
2022-08-31T05:44:13.290Z,101005.06
2022-08-31T05:46:43.665Z,101000.28
2022-08-31T05:49:12.851Z,101005.78
2022-08-31T05:51:43.007Z,101006.50
2022-08-31T05:54:12.113Z,101011.44
2022-08-31T05:56:43.054Z,101009.34
2022-08-31T05:59:14.251Z,101011.88
2022-08-31T06:01:43.425Z,101016.25
2022-08-31T06:04:15.456Z,101016.25
2022-08-31T06:06:47.151Z,101023.53
2022-08-31T06:09:18.441Z,101028.28
2022-08-31T06:11:48.048Z,101029.34
2022-08-31T06:14:19.272Z,101030.69
2022-08-31T06:16:49.914Z,101029.13
2022-08-31T06:19:21.667Z,101037.25
2022-08-31T06:21:53.401Z,101035.56
2022-08-31T06:24:27.647Z,101029.00
2022-08-31T06:26:59.672Z,101038.63
2022-08-31T06:29:35.547Z,101040.56
2022-08-31T06:32:08.065Z,101043.94
2022-08-31T06:34:42.464Z,101036.38
2022-08-31T06:37:38.436Z,101040.31
2022-08-31T06:40:27.440Z,101033.69
2022-08-31T06:43:21.705Z,101040.00
2022-08-31T06:46:02.359Z,101035.53
2022-08-31T06:48:34.954Z,101031.47
2022-08-31T06:51:04.531Z,101038.56
2022-08-31T06:53:34.842Z,101031.25
2022-08-31T06:56:25.257Z,101036.31
2022-08-31T06:59:13.538Z,101039.50
2022-08-31T07:02:05.720Z,101047.22
2022-08-31T07:04:39.813Z,101049.44
2022-08-31T07:07:11.499Z,101049.75
2022-08-31T07:09:43.408Z,101051.00
2022-08-31T07:12:13.023Z,101049.31
2022-08-31T07:14:41.660Z,101053.81
2022-08-31T07:17:19.246Z,101060.06
2022-08-31T07:19:48.023Z,101049.66
2022-08-31T07:22:17.771Z,101048.03
2022-08-31T07:24:52.592Z,101040.88
2022-08-31T07:27:21.550Z,101056.91
2022-08-31T07:30:01.167Z,101061.34
2022-08-31T07:32:35.446Z,101052.13
2022-08-31T07:35:04.996Z,101056.28
2022-08-31T07:37:51.382Z,101059.53
2022-08-31T07:40:44.725Z,101063.50
2022-08-31T07:43:17.001Z,101072.91
2022-08-31T07:45:47.053Z,101051.28
2022-08-31T07:48:21.478Z,101049.03
2022-08-31T07:51:03.937Z,101056.75
2022-08-31T07:54:06.970Z,101059.94
2022-08-31T07:56:43.628Z,101064.13
2022-08-31T07:59:15.188Z,101048.69
2022-08-31T08:01:46.602Z,101058.66
2022-08-31T08:04:25.383Z,101056.81
2022-08-31T08:07:15.145Z,101053.28
2022-08-31T08:10:14.389Z,101057.97
2022-08-31T08:13:05.714Z,101068.09
2022-08-31T08:15:59.466Z,101068.81
2022-08-31T08:18:48.869Z,101065.75
2022-08-31T08:21:21.722Z,101066.34
2022-08-31T08:23:53.023Z,101072.56
2022-08-31T08:26:44.317Z,101068.34
2022-08-31T08:29:26.266Z,101055.88
2022-08-31T08:31:56.399Z,101067.06
2022-08-31T08:34:32.328Z,101072.16
2022-08-31T08:37:03.779Z,101066.28
2022-08-31T08:39:32.698Z,101069.28
2022-08-31T08:42:16.693Z,101062.94
2022-08-31T08:44:47.114Z,101063.94
2022-08-31T08:47:24.070Z,101061.13
2022-08-31T08:50:03.890Z,101071.56
2022-08-31T08:52:42.547Z,101062.88
2022-08-31T08:55:17.744Z,101072.88
2022-08-31T08:57:52.431Z,101070.78
2022-08-31T09:00:26.487Z,101074.28
2022-08-31T09:03:02.300Z,101067.84
2022-08-31T09:06:10.691Z,101073.88
2022-08-31T09:09:20.522Z,101074.97
2022-08-31T09:12:20.935Z,101066.63
2022-08-31T09:15:15.487Z,101071.97
2022-08-31T09:18:03.694Z,101062.28
2022-08-31T09:20:33.940Z,101066.31
2022-08-31T09:23:08.009Z,101064.72
2022-08-31T09:25:52.494Z,101067.03
2022-08-31T09:28:47.222Z,101065.94
2022-08-31T09:31:38.383Z,101063.78
2022-08-31T09:34:28.064Z,101053.66
2022-08-31T09:37:16.329Z,101058.63
2022-08-31T09:39:49.666Z,101049.50
2022-08-31T09:42:31.472Z,101041.91
2022-08-31T09:45:04.540Z,101051.34
2022-08-31T09:47:52.934Z,101048.38
2022-08-31T09:50:35.796Z,101056.94
2022-08-31T09:53:32.816Z,101046.91
2022-08-31T09:56:16.937Z,101044.34
2022-08-31T09:58:51.977Z,101049.59
2022-08-31T10:01:30.479Z,101037.44
2022-08-31T10:04:27.258Z,101035.94
2022-08-31T10:07:06.275Z,101045.28
2022-08-31T10:09:47.017Z,101052.00
2022-08-31T10:12:23.763Z,101038.06
2022-08-31T10:15:00.961Z,101039.22
2022-08-31T10:17:38.671Z,101034.09
2022-08-31T10:20:16.597Z,101035.75
2022-08-31T10:22:53.532Z,101026.19
2022-08-31T10:25:31.197Z,101022.53
2022-08-31T10:28:15.465Z,101025.88
2022-08-31T10:30:54.112Z,101039.03
2022-08-31T10:33:52.217Z,101031.03
2022-08-31T10:36:21.063Z,101035.06
2022-08-31T10:38:54.311Z,101015.88
2022-08-31T10:41:30.868Z,101022.59
2022-08-31T10:44:07.991Z,101015.00
2022-08-31T10:46:37.077Z,101022.84
2022-08-31T10:49:07.615Z,101019.06
2022-08-31T10:52:01.860Z,101019.81
2022-08-31T10:54:48.608Z,101006.19
2022-08-31T10:57:32.937Z,101012.91
2022-08-31T11:00:30.045Z,101005.31
2022-08-31T11:03:13.337Z,101007.66
2022-08-31T11:05:51.024Z,101010.50
2022-08-31T11:08:50.162Z,101000.69
2022-08-31T11:50:33.217Z,100971.88
2022-08-31T11:53:25.448Z,100979.41
2022-08-31T11:56:00.512Z,100966.50
2022-08-31T11:58:34.678Z,100969.97
2022-08-31T12:01:09.654Z,100976.75
2022-08-31T12:03:52.680Z,100976.25
2022-08-31T12:07:08.789Z,100967.88
2022-08-31T12:10:17.620Z,100961.69
2022-08-31T12:13:09.590Z,100963.34
2022-08-31T12:16:15.165Z,100957.25
2022-08-31T12:19:08.411Z,100951.69
2022-08-31T12:22:12.096Z,100955.31
2022-08-31T12:24:57.941Z,100946.31
2022-08-31T12:27:40.763Z,100942.78
2022-08-31T12:30:23.988Z,100930.66
2022-08-31T12:33:02.719Z,100922.97
2022-08-31T12:35:34.147Z,100932.13
2022-08-31T12:38:07.411Z,100925.78
2022-08-31T12:40:44.118Z,100929.84
2022-08-31T12:43:19.724Z,100930.56
2022-08-31T12:46:42.777Z,100919.59
2022-08-31T12:49:33.391Z,100918.31
2022-08-31T12:52:20.800Z,100909.84
2022-08-31T12:55:23.594Z,100916.63
2022-08-31T12:58:16.225Z,100921.94
2022-08-31T13:00:47.189Z,100908.44
2022-08-31T13:03:24.011Z,100909.34
2022-08-31T13:06:08.297Z,100903.94
2022-08-31T13:08:42.037Z,100902.50
2022-08-31T13:11:31.091Z,100900.13
2022-08-31T13:14:20.792Z,100896.47
2022-08-31T13:16:54.366Z,100895.47
2022-08-31T13:19:26.957Z,100899.97
2022-08-31T13:22:00.101Z,100905.97
2022-08-31T13:24:33.316Z,100890.34
2022-08-31T13:27:13.271Z,100899.47
2022-08-31T13:29:45.145Z,100891.97
2022-08-31T13:32:33.057Z,100901.69
2022-08-31T13:35:05.347Z,100903.78
2022-08-31T13:37:39.391Z,100907.63
2022-08-31T13:40:14.205Z,100906.13
2022-08-31T13:42:47.375Z,100898.94
2022-08-31T13:45:27.436Z,100900.16
2022-08-31T13:48:00.753Z,100900.19
2022-08-31T13:50:52.695Z,100904.13
2022-08-31T13:53:41.843Z,100895.69
2022-08-31T13:56:53.429Z,100890.59
2022-08-31T13:59:38.406Z,100893.22
2022-08-31T14:02:36.503Z,100879.56
2022-08-31T14:05:12.788Z,100886.81
2022-08-31T14:07:57.951Z,100890.31
2022-08-31T14:10:31.965Z,100886.56
2022-08-31T14:13:04.427Z,100899.78
2022-08-31T14:15:41.067Z,100889.72
2022-08-31T14:18:24.981Z,100889.72
2022-08-31T14:21:21.858Z,100884.09
2022-08-31T14:23:54.955Z,100881.88
2022-08-31T14:26:29.106Z,100879.69
2022-08-31T14:29:01.897Z,100881.31
2022-08-31T14:31:37.226Z,100886.19
2022-08-31T14:34:27.301Z,100887.25
2022-08-31T14:37:06.605Z,100892.53
2022-08-31T14:39:41.842Z,100890.63
2022-08-31T14:42:18.725Z,100885.59
2022-08-31T14:44:53.783Z,100892.56
2022-08-31T14:47:28.319Z,100890.91
2022-08-31T14:50:05.377Z,100894.09
2022-08-31T14:52:37.471Z,100882.59
2022-08-31T14:55:09.221Z,100894.03
2022-08-31T14:57:43.109Z,100879.13
2022-08-31T15:00:23.368Z,100885.03
2022-08-31T15:02:54.141Z,100882.06
2022-08-31T15:05:26.169Z,100885.47
2022-08-31T15:07:57.299Z,100880.66
2022-08-31T15:10:27.749Z,100890.63
2022-08-31T15:12:56.353Z,100885.16
2022-08-31T15:15:25.374Z,100880.56
2022-08-31T15:17:54.175Z,100884.28
2022-08-31T15:20:23.360Z,100888.81
2022-08-31T15:22:52.097Z,100892.13
2022-08-31T15:25:25.003Z,100889.81
2022-08-31T15:27:53.633Z,100889.13
2022-08-31T15:30:24.561Z,100888.13
2022-08-31T15:32:54.381Z,100886.31
2022-08-31T15:35:26.492Z,100894.19
2022-08-31T15:38:01.457Z,100883.31
2022-08-31T15:40:38.781Z,100885.28
2022-08-31T15:43:09.593Z,100888.97
2022-08-31T15:45:38.833Z,100887.75
2022-08-31T15:48:24.980Z,100886.13
2022-08-31T15:51:00.555Z,100890.00
2022-08-31T15:53:30.704Z,100894.50
2022-08-31T15:56:06.492Z,100891.53
2022-08-31T15:58:39.065Z,100893.44
2022-08-31T16:01:16.232Z,100894.34
2022-08-31T16:03:50.969Z,100897.38
2022-08-31T16:06:22.685Z,100896.09
2022-08-31T16:08:53.418Z,100893.16
2022-08-31T16:11:26.397Z,100897.59
2022-08-31T16:14:00.951Z,100896.88
2022-08-31T16:16:34.307Z,100898.38
2022-08-31T16:19:05.372Z,100894.28
2022-08-31T16:21:39.205Z,100894.63
2022-08-31T16:24:10.484Z,100901.13
2022-08-31T16:26:44.375Z,100900.09
2022-08-31T16:29:17.063Z,100883.88
2022-08-31T16:31:47.075Z,100891.09
2022-08-31T16:34:16.197Z,100880.47
2022-08-31T16:36:45.020Z,100888.03
2022-08-31T16:39:13.940Z,100891.28
2022-08-31T16:41:44.509Z,100892.69
2022-08-31T16:44:19.910Z,100893.81
2022-08-31T16:46:49.115Z,100896.75
2022-08-31T16:49:36.441Z,100892.44
2022-08-31T16:52:09.985Z,100892.81
2022-08-31T16:54:42.812Z,100896.94
2022-08-31T16:57:16.253Z,100891.81
2022-08-31T16:59:46.556Z,100891.59
2022-08-31T17:02:17.851Z,100898.03
2022-08-31T17:04:54.524Z,100906.91
2022-08-31T17:07:25.627Z,100902.13
2022-08-31T17:09:57.529Z,100904.78
2022-08-31T17:12:27.650Z,100902.38
2022-08-31T17:14:58.404Z,100900.13
2022-08-31T17:17:27.919Z,100899.25
2022-08-31T17:19:58.203Z,100894.19
2022-08-31T17:22:32.466Z,100905.09
2022-08-31T17:25:04.377Z,100907.13
2022-08-31T17:27:36.277Z,100909.00
2022-08-31T17:30:07.970Z,100911.34
2022-08-31T17:32:41.800Z,100920.34
2022-08-31T17:35:18.462Z,100917.59
2022-08-31T17:37:49.979Z,100912.94
2022-08-31T17:40:19.279Z,100920.50
2022-08-31T17:42:53.502Z,100921.59
2022-08-31T17:45:23.823Z,100918.63
2022-08-31T17:47:54.852Z,100923.16
2022-08-31T17:50:23.451Z,100924.03
2022-08-31T17:52:54.057Z,100924.91
2022-08-31T17:55:22.912Z,100926.50
2022-08-31T17:57:53.241Z,100921.75
2022-08-31T18:00:22.239Z,100927.56
2022-08-31T18:02:50.808Z,100924.38
2022-08-31T18:05:19.594Z,100921.66
2022-08-31T18:07:50.880Z,100920.81
2022-08-31T18:10:20.302Z,100928.91
2022-08-31T18:12:49.081Z,100929.13
2022-08-31T18:15:20.075Z,100928.66
2022-08-31T18:17:48.781Z,100935.84
2022-08-31T18:20:17.821Z,100938.94
2022-08-31T18:22:51.550Z,100934.44
2022-08-31T18:25:21.585Z,100941.97
2022-08-31T18:27:50.358Z,100943.34
2022-08-31T18:30:21.068Z,100935.97
2022-08-31T18:32:51.358Z,100942.94
2022-08-31T18:35:20.271Z,100954.38
2022-08-31T18:37:49.214Z,100952.16
2022-08-31T18:40:35.784Z,100944.53
2022-08-31T18:43:22.492Z,100949.19
2022-08-31T18:45:52.723Z,100952.88
2022-08-31T18:48:26.385Z,100943.34
2022-08-31T18:51:04.104Z,100947.97
2022-08-31T18:53:34.622Z,100938.53
2022-08-31T18:56:10.112Z,100948.50
2022-08-31T18:58:41.703Z,100943.38
2022-08-31T19:01:13.383Z,100949.75
2022-08-31T19:03:43.068Z,100947.66
2022-08-31T19:06:19.111Z,100951.84
2022-08-31T19:08:48.622Z,100948.78
2022-08-31T19:11:19.148Z,100939.13
2022-08-31T19:13:51.356Z,100939.31
2022-08-31T19:16:27.709Z,100941.97
2022-08-31T19:18:57.547Z,100945.41
2022-08-31T19:21:31.225Z,100952.16
2022-08-31T19:24:03.008Z,100947.38
2022-08-31T19:26:38.034Z,100946.00
2022-08-31T19:29:11.287Z,100951.44
2022-08-31T19:31:45.902Z,100941.94
2022-08-31T19:34:18.456Z,100944.13
2022-08-31T19:36:54.361Z,100946.84
2022-08-31T19:39:26.828Z,100941.91
2022-08-31T19:41:59.882Z,100946.00
2022-08-31T19:44:29.320Z,100939.69
2022-08-31T19:47:26.109Z,100937.44
2022-08-31T19:49:55.172Z,100931.50
2022-08-31T19:52:25.798Z,100935.22
2022-08-31T19:54:55.061Z,100938.44
2022-08-31T19:57:23.818Z,100938.84
2022-08-31T19:59:52.601Z,100934.78
2022-08-31T20:02:22.582Z,100947.66
2022-08-31T20:04:51.410Z,100938.75
2022-08-31T20:07:22.102Z,100941.75
2022-08-31T20:09:52.901Z,100936.00
2022-08-31T20:12:21.776Z,100935.75
2022-08-31T20:14:51.137Z,100943.09
2022-08-31T20:17:20.442Z,100941.78
2022-08-31T20:19:51.120Z,100935.25
2022-08-31T20:22:23.975Z,100947.88
2022-08-31T20:24:58.395Z,100941.22
2022-08-31T20:27:28.250Z,100939.56
2022-08-31T20:29:58.455Z,100935.94
2022-08-31T20:32:29.049Z,100944.38
2022-08-31T20:34:59.148Z,100951.13
2022-08-31T20:37:28.044Z,100959.25
2022-08-31T20:39:56.875Z,100954.28
2022-08-31T20:42:25.721Z,100958.59
2022-08-31T20:44:56.020Z,100954.81
2022-08-31T20:47:41.507Z,100957.34
2022-08-31T20:50:11.685Z,100950.31
2022-08-31T20:52:40.453Z,100949.22
2022-08-31T20:55:12.474Z,100941.50
2022-08-31T20:57:41.666Z,100941.91
2022-08-31T21:00:12.384Z,100944.41
2022-08-31T21:02:41.203Z,100950.16
2022-08-31T21:08:03.775Z,100944.66
2022-08-31T21:10:37.909Z,100956.66
2022-08-31T21:13:13.103Z,100962.25
2022-08-31T21:15:45.560Z,100957.75
2022-08-31T21:18:17.492Z,100969.56
2022-08-31T21:20:48.563Z,100964.38
2022-08-31T21:23:17.402Z,100960.66
2022-08-31T21:25:47.516Z,100972.22
2022-08-31T21:28:18.452Z,100968.97
2022-08-31T21:30:50.369Z,100970.16
2022-08-31T21:33:20.120Z,100971.22
2022-08-31T21:35:50.263Z,100970.97
2022-08-31T21:38:19.059Z,100971.69
2022-08-31T21:40:49.870Z,100975.25
2022-08-31T21:43:19.445Z,100979.53
2022-08-31T21:45:55.166Z,100978.25
2022-08-31T21:48:26.256Z,100982.06
2022-08-31T21:50:57.233Z,100973.81
2022-08-31T21:53:27.302Z,100974.16
2022-08-31T21:55:56.036Z,100980.91
2022-08-31T21:58:24.712Z,100976.81
2022-08-31T22:00:55.525Z,100973.41
2022-08-31T22:03:24.634Z,100977.72
2022-08-31T22:05:54.232Z,100975.78
2022-08-31T22:08:27.144Z,100976.56
2022-08-31T22:10:55.793Z,100985.59
2022-08-31T22:13:24.633Z,100978.63
2022-08-31T22:15:56.658Z,100978.72
2022-08-31T22:18:59.561Z,100978.47
2022-08-31T22:21:22.968Z,100980.53
2022-08-31T22:23:57.277Z,100988.38
2022-08-31T22:26:29.853Z,100987.78
2022-08-31T22:28:59.354Z,100983.69
2022-08-31T22:31:28.436Z,100992.38
2022-08-31T22:33:57.672Z,100981.81
2022-08-31T22:36:32.306Z,100969.94
2022-08-31T22:39:04.775Z,100978.97
2022-08-31T22:41:37.519Z,100975.72
2022-08-31T22:44:07.889Z,100983.53
2022-08-31T22:46:39.978Z,100977.41
2022-08-31T22:49:09.384Z,100978.88
2022-08-31T22:51:40.847Z,100974.78
2022-08-31T22:54:11.567Z,100975.69
2022-08-31T22:56:41.031Z,100973.00
2022-08-31T22:59:15.251Z,100959.97
2022-08-31T23:01:49.928Z,100972.88
2022-08-31T23:04:20.631Z,100974.94
2022-08-31T23:06:51.976Z,100971.13
2022-08-31T23:09:27.128Z,100968.19
2022-08-31T23:11:58.382Z,100964.41
2022-08-31T23:14:27.018Z,100975.06
2022-08-31T23:17:00.648Z,100978.38
2022-08-31T23:19:36.712Z,100978.88
2022-08-31T23:22:09.500Z,100978.38
2022-08-31T23:24:44.836Z,100961.66
2022-08-31T23:27:17.076Z,100975.56
2022-08-31T23:29:49.292Z,100975.63
2022-08-31T23:32:21.911Z,100970.19
2022-08-31T23:34:52.494Z,100963.19
2022-08-31T23:37:25.767Z,100973.44
2022-08-31T23:39:57.844Z,100964.50
2022-08-31T23:42:28.907Z,100974.63
2022-08-31T23:44:58.978Z,100973.78
2022-08-31T23:47:31.299Z,100976.47
2022-08-31T23:50:02.940Z,100972.94
2022-08-31T23:52:41.247Z,100968.41
2022-08-31T23:55:12.820Z,100978.59
2022-08-31T23:57:41.954Z,100977.47
